sensor_id;sensor_type;location;lat;lon;timestamp;pressure;altitude;pressure_sealevel;temperature;humidity
62849;BME280;48941;49.516;8.286;2023-07-09T00:00:49;100663.09;;;21.16;90.58
62849;BME280;48941;49.516;8.286;2023-07-09T00:03:18;100665.16;;;21.14;90.24
62849;BME280;48941;49.516;8.286;2023-07-09T00:05:48;100672.44;;;21.14;90.21
62849;BME280;48941;49.516;8.286;2023-07-09T00:08:25;100668.25;;;21.11;90.30
62849;BME280;48941;49.516;8.286;2023-07-09T00:10:54;100670.97;;;21.11;90.35
62849;BME280;48941;49.516;8.286;2023-07-09T00:13:22;100675.16;;;21.14;90.49
62849;BME280;48941;49.516;8.286;2023-07-09T00:15:53;100673.69;;;21.11;90.35
62849;BME280;48941;49.516;8.286;2023-07-09T00:18:22;100673.84;;;21.09;90.11
62849;BME280;48941;49.516;8.286;2023-07-09T00:20:50;100675.72;;;21.09;89.69
62849;BME280;48941;49.516;8.286;2023-07-09T00:23:18;100674.03;;;21.08;89.16
62849;BME280;48941;49.516;8.286;2023-07-09T00:25:46;100670.66;;;21.06;89.12
62849;BME280;48941;49.516;8.286;2023-07-09T00:28:14;100671.88;;;21.03;88.98
62849;BME280;48941;49.516;8.286;2023-07-09T00:30:43;100679.19;;;21.03;88.70
62849;BME280;48941;49.516;8.286;2023-07-09T00:33:14;100674.94;;;21.00;89.08
62849;BME280;48941;49.516;8.286;2023-07-09T00:35:43;100681.22;;;21.01;88.67
62849;BME280;48941;49.516;8.286;2023-07-09T00:38:14;100680.53;;;20.99;88.88
62849;BME280;48941;49.516;8.286;2023-07-09T00:40:47;100688.88;;;20.97;88.79
62849;BME280;48941;49.516;8.286;2023-07-09T00:43:16;100692.22;;;20.99;88.43
62849;BME280;48941;49.516;8.286;2023-07-09T00:45:44;100685.28;;;20.97;88.48
62849;BME280;48941;49.516;8.286;2023-07-09T00:48:15;100682.59;;;20.97;88.52
62849;BME280;48941;49.516;8.286;2023-07-09T00:50:48;100679.88;;;20.97;88.33
62849;BME280;48941;49.516;8.286;2023-07-09T00:53:20;100682.97;;;20.94;88.64
62849;BME280;48941;49.516;8.286;2023-07-09T00:55:55;100686.50;;;20.94;89.03
62849;BME280;48941;49.516;8.286;2023-07-09T00:58:26;100685.03;;;20.92;89.39
62849;BME280;48941;49.516;8.286;2023-07-09T01:01:00;100680.28;;;20.94;89.00
62849;BME280;48941;49.516;8.286;2023-07-09T01:03:35;100689.97;;;20.88;89.01
62849;BME280;48941;49.516;8.286;2023-07-09T01:06:05;100686.84;;;20.76;89.38
62849;BME280;48941;49.516;8.286;2023-07-09T01:08:35;100691.84;;;20.64;89.59
62849;BME280;48941;49.516;8.286;2023-07-09T01:11:03;100693.41;;;20.59;90.01
62849;BME280;48941;49.516;8.286;2023-07-09T01:13:35;100695.44;;;20.57;89.90
62849;BME280;48941;49.516;8.286;2023-07-09T01:16:06;100697.28;;;20.56;90.06
62849;BME280;48941;49.516;8.286;2023-07-09T01:18:35;100695.13;;;20.52;90.02
62849;BME280;48941;49.516;8.286;2023-07-09T01:21:09;100703.59;;;20.48;90.04
62849;BME280;48941;49.516;8.286;2023-07-09T01:23:42;100695.97;;;20.52;89.95
62849;BME280;48941;49.516;8.286;2023-07-09T01:26:11;100699.50;;;20.53;89.26
62849;BME280;48941;49.516;8.286;2023-07-09T01:28:39;100692.25;;;20.53;89.57
62849;BME280;48941;49.516;8.286;2023-07-09T01:31:08;100692.94;;;20.55;89.45
62849;BME280;48941;49.516;8.286;2023-07-09T01:33:36;100693.94;;;20.54;89.43
62849;BME280;48941;49.516;8.286;2023-07-09T01:36:06;100698.84;;;20.50;89.32
62849;BME280;48941;49.516;8.286;2023-07-09T01:38:35;100691.94;;;20.48;89.08
62849;BME280;48941;49.516;8.286;2023-07-09T01:41:03;100691.13;;;20.47;88.91
62849;BME280;48941;49.516;8.286;2023-07-09T01:43:34;100693.66;;;20.49;88.73
62849;BME280;48941;49.516;8.286;2023-07-09T01:46:03;100694.81;;;20.46;88.35
62849;BME280;48941;49.516;8.286;2023-07-09T01:48:31;100687.94;;;20.44;88.22
62849;BME280;48941;49.516;8.286;2023-07-09T01:50:59;100688.16;;;20.34;88.29
62849;BME280;48941;49.516;8.286;2023-07-09T01:53:29;100685.63;;;20.33;88.71
62849;BME280;48941;49.516;8.286;2023-07-09T01:55:59;100681.75;;;20.35;88.92
62849;BME280;48941;49.516;8.286;2023-07-09T01:58:27;100683.25;;;20.38;89.04
62849;BME280;48941;49.516;8.286;2023-07-09T02:00:58;100687.44;;;20.40;88.93
62849;BME280;48941;49.516;8.286;2023-07-09T02:03:27;100691.19;;;20.39;89.12
62849;BME280;48941;49.516;8.286;2023-07-09T02:05:55;100687.09;;;20.43;89.77
62849;BME280;48941;49.516;8.286;2023-07-09T02:08:24;100682.03;;;20.40;89.88
62849;BME280;48941;49.516;8.286;2023-07-09T02:10:52;100696.28;;;20.34;89.79
62849;BME280;48941;49.516;8.286;2023-07-09T02:13:21;100693.06;;;20.30;90.04
62849;BME280;48941;49.516;8.286;2023-07-09T02:15:48;100693.63;;;20.26;90.45
62849;BME280;48941;49.516;8.286;2023-07-09T02:18:16;100703.78;;;20.24;90.50
62849;BME280;48941;49.516;8.286;2023-07-09T02:20:45;100695.66;;;20.24;90.53
62849;BME280;48941;49.516;8.286;2023-07-09T02:23:13;100694.34;;;20.20;90.84
62849;BME280;48941;49.516;8.286;2023-07-09T02:25:41;100692.47;;;20.20;90.79
62849;BME280;48941;49.516;8.286;2023-07-09T02:28:09;100690.09;;;20.25;90.37
62849;BME280;48941;49.516;8.286;2023-07-09T02:30:38;100692.97;;;20.24;90.36
62849;BME280;48941;49.516;8.286;2023-07-09T02:33:06;100696.69;;;20.23;90.95
62849;BME280;48941;49.516;8.286;2023-07-09T02:35:34;100682.69;;;20.19;90.90
62849;BME280;48941;49.516;8.286;2023-07-09T02:38:02;100683.03;;;20.16;91.04
62849;BME280;48941;49.516;8.286;2023-07-09T02:40:30;100683.03;;;20.16;91.24
62849;BME280;48941;49.516;8.286;2023-07-09T02:42:59;100688.81;;;20.13;91.53
62849;BME280;48941;49.516;8.286;2023-07-09T02:45:27;100688.31;;;20.09;91.48
62849;BME280;48941;49.516;8.286;2023-07-09T02:47:56;100691.69;;;20.12;91.71
62849;BME280;48941;49.516;8.286;2023-07-09T02:50:24;100688.66;;;20.06;91.78
62849;BME280;48941;49.516;8.286;2023-07-09T02:52:52;100699.53;;;19.98;92.51
62849;BME280;48941;49.516;8.286;2023-07-09T02:55:19;100694.50;;;19.95;92.75
62849;BME280;48941;49.516;8.286;2023-07-09T02:57:47;100693.28;;;19.98;92.60
62849;BME280;48941;49.516;8.286;2023-07-09T03:00:16;100700.38;;;19.99;92.67
62849;BME280;48941;49.516;8.286;2023-07-09T03:02:44;100704.44;;;19.95;92.43
62849;BME280;48941;49.516;8.286;2023-07-09T03:05:13;100702.59;;;19.95;92.52
62849;BME280;48941;49.516;8.286;2023-07-09T03:07:41;100713.41;;;19.95;92.54
62849;BME280;48941;49.516;8.286;2023-07-09T03:10:09;100712.38;;;19.96;92.66
62849;BME280;48941;49.516;8.286;2023-07-09T03:12:37;100711.84;;;20.01;92.70
62849;BME280;48941;49.516;8.286;2023-07-09T03:15:05;100715.22;;;20.03;92.95
62849;BME280;48941;49.516;8.286;2023-07-09T03:17:33;100713.84;;;20.07;92.35
62849;BME280;48941;49.516;8.286;2023-07-09T03:20:01;100715.53;;;20.08;92.02
62849;BME280;48941;49.516;8.286;2023-07-09T03:22:30;100723.31;;;20.11;91.86
62849;BME280;48941;49.516;8.286;2023-07-09T03:24:58;100724.47;;;20.08;91.28
62849;BME280;48941;49.516;8.286;2023-07-09T03:27:26;100724.19;;;20.03;91.63
62849;BME280;48941;49.516;8.286;2023-07-09T03:29:53;100722.84;;;19.99;91.59
62849;BME280;48941;49.516;8.286;2023-07-09T03:32:21;100737.38;;;19.98;91.82
62849;BME280;48941;49.516;8.286;2023-07-09T03:34:49;100743.66;;;19.90;91.89
62849;BME280;48941;49.516;8.286;2023-07-09T03:37:19;100741.16;;;19.89;91.90
62849;BME280;48941;49.516;8.286;2023-07-09T03:39:48;100749.94;;;19.91;92.01
62849;BME280;48941;49.516;8.286;2023-07-09T03:42:17;100749.06;;;19.90;91.87
62849;BME280;48941;49.516;8.286;2023-07-09T03:44:45;100753.81;;;19.88;91.83
62849;BME280;48941;49.516;8.286;2023-07-09T03:47:13;100750.44;;;19.86;91.70
62849;BME280;48941;49.516;8.286;2023-07-09T03:49:41;100752.47;;;19.84;92.37
62849;BME280;48941;49.516;8.286;2023-07-09T03:52:09;100751.25;;;19.87;92.61
62849;BME280;48941;49.516;8.286;2023-07-09T03:54:37;100750.25;;;19.88;92.47
62849;BME280;48941;49.516;8.286;2023-07-09T03:57:06;100749.94;;;19.91;92.43
62849;BME280;48941;49.516;8.286;2023-07-09T03:59:34;100751.97;;;19.89;92.46
62849;BME280;48941;49.516;8.286;2023-07-09T04:02:04;100754.31;;;19.92;92.09
62849;BME280;48941;49.516;8.286;2023-07-09T04:04:33;100750.59;;;19.93;92.43
62849;BME280;48941;49.516;8.286;2023-07-09T04:07:01;100746.03;;;19.94;92.31
62849;BME280;48941;49.516;8.286;2023-07-09T04:09:29;100757.50;;;19.96;92.54
62849;BME280;48941;49.516;8.286;2023-07-09T04:11:57;100750.22;;;19.96;92.43
62849;BME280;48941;49.516;8.286;2023-07-09T04:14:29;100751.25;;;19.95;92.66
62849;BME280;48941;49.516;8.286;2023-07-09T04:16:56;100750.22;;;19.96;92.71
62849;BME280;48941;49.516;8.286;2023-07-09T04:19:25;100759.84;;;19.99;92.45
62849;BME280;48941;49.516;8.286;2023-07-09T04:21:53;100752.75;;;19.98;91.69
62849;BME280;48941;49.516;8.286;2023-07-09T04:24:22;100760.22;;;19.96;90.85
62849;BME280;48941;49.516;8.286;2023-07-09T04:26:50;100762.06;;;19.95;91.18
62849;BME280;48941;49.516;8.286;2023-07-09T04:29:23;100764.09;;;19.93;91.14
62849;BME280;48941;49.516;8.286;2023-07-09T04:31:52;100761.88;;;19.97;91.20
62849;BME280;48941;49.516;8.286;2023-07-09T04:34:20;100767.28;;;19.97;91.20
62849;BME280;48941;49.516;8.286;2023-07-09T04:36:48;100770.47;;;20.00;90.96
62849;BME280;48941;49.516;8.286;2023-07-09T04:39:15;100777.75;;;20.00;90.76
62849;BME280;48941;49.516;8.286;2023-07-09T04:41:43;100781.13;;;20.02;90.52
62849;BME280;48941;49.516;8.286;2023-07-09T04:44:11;100777.38;;;20.03;90.49
62849;BME280;48941;49.516;8.286;2023-07-09T04:46:39;100786.50;;;20.10;90.29
62849;BME280;48941;49.516;8.286;2023-07-09T04:49:08;100778.06;;;20.13;89.95
62849;BME280;48941;49.516;8.286;2023-07-09T04:51:38;100780.22;;;20.18;90.25
62849;BME280;48941;49.516;8.286;2023-07-09T04:54:06;100769.22;;;20.19;89.54
62849;BME280;48941;49.516;8.286;2023-07-09T04:56:34;100768.84;;;20.22;89.86
62849;BME280;48941;49.516;8.286;2023-07-09T04:59:03;100767.47;;;20.26;90.14
62849;BME280;48941;49.516;8.286;2023-07-09T05:01:31;100770.50;;;20.32;88.59
62849;BME280;48941;49.516;8.286;2023-07-09T05:03:59;100773.16;;;20.40;88.56
62849;BME280;48941;49.516;8.286;2023-07-09T05:06:28;100775.81;;;20.48;87.58
62849;BME280;48941;49.516;8.286;2023-07-09T05:08:56;100772.75;;;20.59;87.73
62849;BME280;48941;49.516;8.286;2023-07-09T05:11:24;100773.53;;;20.68;87.54
62849;BME280;48941;49.516;8.286;2023-07-09T05:13:51;100764.19;;;20.71;88.20
62849;BME280;48941;49.516;8.286;2023-07-09T05:16:19;100766.66;;;20.80;88.11
62849;BME280;48941;49.516;8.286;2023-07-09T05:18:47;100764.56;;;20.91;88.18
62849;BME280;48941;49.516;8.286;2023-07-09T05:21:15;100769.88;;;20.99;87.84
62849;BME280;48941;49.516;8.286;2023-07-09T05:23:44;100768.53;;;21.03;87.14
62849;BME280;48941;49.516;8.286;2023-07-09T05:26:12;100773.88;;;21.11;86.91
62849;BME280;48941;49.516;8.286;2023-07-09T05:28:40;100771.94;;;21.20;87.70
62849;BME280;48941;49.516;8.286;2023-07-09T05:31:08;100773.53;;;21.29;87.85
62849;BME280;48941;49.516;8.286;2023-07-09T05:33:36;100775.31;;;21.37;87.50
62849;BME280;48941;49.516;8.286;2023-07-09T05:36:04;100776.44;;;21.42;86.04
62849;BME280;48941;49.516;8.286;2023-07-09T05:38:32;100778.91;;;21.52;85.93
62849;BME280;48941;49.516;8.286;2023-07-09T05:41:02;100763.22;;;21.62;86.36
62849;BME280;48941;49.516;8.286;2023-07-09T05:43:31;100774.19;;;21.69;85.05
62849;BME280;48941;49.516;8.286;2023-07-09T05:46:01;100774.09;;;21.77;82.38
62849;BME280;48941;49.516;8.286;2023-07-09T05:48:29;100780.06;;;21.87;83.17
62849;BME280;48941;49.516;8.286;2023-07-09T05:50:57;100776.22;;;21.97;81.56
62849;BME280;48941;49.516;8.286;2023-07-09T05:53:25;100780.91;;;22.03;79.28
62849;BME280;48941;49.516;8.286;2023-07-09T05:55:53;100779.38;;;22.15;79.69
62849;BME280;48941;49.516;8.286;2023-07-09T05:58:23;100785.56;;;22.24;79.53
62849;BME280;48941;49.516;8.286;2023-07-09T06:00:51;100791.06;;;22.31;77.46
62849;BME280;48941;49.516;8.286;2023-07-09T06:03:21;100790.56;;;22.42;78.23
62849;BME280;48941;49.516;8.286;2023-07-09T06:05:49;100793.63;;;22.54;78.63
62849;BME280;48941;49.516;8.286;2023-07-09T06:08:18;100794.56;;;22.61;76.81
62849;BME280;48941;49.516;8.286;2023-07-09T06:10:54;100792.91;;;22.66;76.45
62849;BME280;48941;49.516;8.286;2023-07-09T06:13:24;100804.13;;;22.78;76.63
62849;BME280;48941;49.516;8.286;2023-07-09T06:15:54;100794.81;;;22.87;77.04
62849;BME280;48941;49.516;8.286;2023-07-09T06:18:23;100785.72;;;22.95;77.81
62849;BME280;48941;49.516;8.286;2023-07-09T06:20:55;100786.81;;;23.01;76.72
62849;BME280;48941;49.516;8.286;2023-07-09T06:23:23;100786.50;;;23.11;76.58
62849;BME280;48941;49.516;8.286;2023-07-09T06:25:51;100786.16;;;23.20;76.65
62849;BME280;48941;49.516;8.286;2023-07-09T06:28:21;100788.75;;;23.29;76.59
62849;BME280;48941;49.516;8.286;2023-07-09T06:30:50;100791.09;;;23.38;76.46
62849;BME280;48941;49.516;8.286;2023-07-09T06:33:19;100792.00;;;23.45;75.82
62849;BME280;48941;49.516;8.286;2023-07-09T06:35:47;100787.47;;;23.53;73.63
62849;BME280;48941;49.516;8.286;2023-07-09T06:38:16;100787.50;;;23.59;71.00
62849;BME280;48941;49.516;8.286;2023-07-09T06:40:44;100785.91;;;23.72;71.01
62849;BME280;48941;49.516;8.286;2023-07-09T06:43:12;100789.31;;;23.80;69.32
62849;BME280;48941;49.516;8.286;2023-07-09T06:45:49;100794.41;;;23.90;68.50
62849;BME280;48941;49.516;8.286;2023-07-09T06:48:17;100793.81;;;23.95;68.76
62849;BME280;48941;49.516;8.286;2023-07-09T06:50:45;100788.66;;;24.07;68.35
62849;BME280;48941;49.516;8.286;2023-07-09T06:53:13;100792.84;;;24.16;67.76
62849;BME280;48941;49.516;8.286;2023-07-09T06:55:41;100788.09;;;24.24;66.99
62849;BME280;48941;49.516;8.286;2023-07-09T06:58:09;100795.00;;;24.27;66.94
62849;BME280;48941;49.516;8.286;2023-07-09T07:00:37;100799.63;;;24.33;66.87
62849;BME280;48941;49.516;8.286;2023-07-09T07:03:06;100801.34;;;24.41;66.01
62849;BME280;48941;49.516;8.286;2023-07-09T07:05:34;100801.63;;;24.53;64.16
62849;BME280;48941;49.516;8.286;2023-07-09T07:08:03;100793.06;;;24.62;64.03
62849;BME280;48941;49.516;8.286;2023-07-09T07:10:33;100787.63;;;24.69;64.11
62849;BME280;48941;49.516;8.286;2023-07-09T07:13:00;100794.97;;;24.82;64.00
62849;BME280;48941;49.516;8.286;2023-07-09T07:15:28;100789.94;;;24.92;62.72
62849;BME280;48941;49.516;8.286;2023-07-09T07:17:56;100779.50;;;25.02;63.20
62849;BME280;48941;49.516;8.286;2023-07-09T07:20:25;100779.28;;;25.11;61.79
62849;BME280;48941;49.516;8.286;2023-07-09T07:22:53;100782.00;;;25.17;62.04
62849;BME280;48941;49.516;8.286;2023-07-09T07:25:21;100781.63;;;25.27;62.00
62849;BME280;48941;49.516;8.286;2023-07-09T07:27:48;100781.19;;;25.37;61.14
62849;BME280;48941;49.516;8.286;2023-07-09T07:30:17;100786.63;;;25.43;61.72
62849;BME280;48941;49.516;8.286;2023-07-09T07:32:47;100790.00;;;25.52;61.50
62849;BME280;48941;49.516;8.286;2023-07-09T07:35:15;100785.34;;;25.59;61.54
62849;BME280;48941;49.516;8.286;2023-07-09T07:37:46;100781.97;;;25.71;60.86
62849;BME280;48941;49.516;8.286;2023-07-09T07:40:14;100788.25;;;25.78;59.95
62849;BME280;48941;49.516;8.286;2023-07-09T07:42:41;100787.19;;;25.86;59.75
62849;BME280;48941;49.516;8.286;2023-07-09T07:45:09;100780.06;;;25.91;59.07
62849;BME280;48941;49.516;8.286;2023-07-09T07:47:37;100782.97;;;26.03;58.24
62849;BME280;48941;49.516;8.286;2023-07-09T07:50:07;100786.06;;;26.13;57.40
62849;BME280;48941;49.516;8.286;2023-07-09T07:52:34;100780.34;;;26.21;57.89
62849;BME280;48941;49.516;8.286;2023-07-09T07:55:07;100781.81;;;26.31;56.51
62849;BME280;48941;49.516;8.286;2023-07-09T07:57:40;100780.06;;;26.43;56.13
62849;BME280;48941;49.516;8.286;2023-07-09T08:00:08;100782.72;;;26.56;56.29
62849;BME280;48941;49.516;8.286;2023-07-09T08:02:36;100782.03;;;26.68;55.31
62849;BME280;48941;49.516;8.286;2023-07-09T08:05:05;100770.63;;;26.77;55.69
62849;BME280;48941;49.516;8.286;2023-07-09T08:07:33;100771.22;;;26.86;55.22
62849;BME280;48941;49.516;8.286;2023-07-09T08:10:01;100773.22;;;26.97;54.87
62849;BME280;48941;49.516;8.286;2023-07-09T08:12:30;100776.06;;;27.09;54.45
62849;BME280;48941;49.516;8.286;2023-07-09T08:14:58;100772.22;;;27.17;53.23
62849;BME280;48941;49.516;8.286;2023-07-09T08:17:26;100762.47;;;27.28;52.86
62849;BME280;48941;49.516;8.286;2023-07-09T08:19:54;100766.38;;;27.38;53.33
62849;BME280;48941;49.516;8.286;2023-07-09T08:22:22;100762.28;;;27.48;53.29
62849;BME280;48941;49.516;8.286;2023-07-09T08:24:50;100768.31;;;27.56;52.88
62849;BME280;48941;49.516;8.286;2023-07-09T08:27:19;100769.22;;;27.69;51.59
62849;BME280;48941;49.516;8.286;2023-07-09T08:29:48;100767.63;;;27.79;50.92
62849;BME280;48941;49.516;8.286;2023-07-09T08:32:16;100763.34;;;27.90;50.87
62849;BME280;48941;49.516;8.286;2023-07-09T08:34:44;100766.50;;;28.06;50.91
62849;BME280;48941;49.516;8.286;2023-07-09T08:37:31;100764.81;;;28.23;50.88
62849;BME280;48941;49.516;8.286;2023-07-09T08:39:59;100764.16;;;28.39;49.32
62849;BME280;48941;49.516;8.286;2023-07-09T08:42:31;100761.41;;;28.58;48.48
62849;BME280;48941;49.516;8.286;2023-07-09T08:45:25;100754.78;;;28.77;47.97
62849;BME280;48941;49.516;8.286;2023-07-09T08:48:01;100754.72;;;28.96;47.78
62849;BME280;48941;49.516;8.286;2023-07-09T08:50:36;100759.53;;;29.12;46.28
62849;BME280;48941;49.516;8.286;2023-07-09T08:53:05;100747.84;;;29.29;47.14
62849;BME280;48941;49.516;8.286;2023-07-09T08:55:37;100755.25;;;29.52;45.90
62849;BME280;48941;49.516;8.286;2023-07-09T08:58:12;100753.41;;;29.69;46.03
62849;BME280;48941;49.516;8.286;2023-07-09T09:00:46;100757.47;;;29.90;45.21
62849;BME280;48941;49.516;8.286;2023-07-09T09:03:27;100747.63;;;30.06;44.89
62849;BME280;48941;49.516;8.286;2023-07-09T09:05:56;100756.19;;;30.22;43.80
62849;BME280;48941;49.516;8.286;2023-07-09T09:08:32;100758.78;;;30.40;44.20
62849;BME280;48941;49.516;8.286;2023-07-09T09:11:10;100755.56;;;30.60;43.79
62849;BME280;48941;49.516;8.286;2023-07-09T09:13:41;100752.25;;;30.75;43.13
62849;BME280;48941;49.516;8.286;2023-07-09T09:16:24;100751.19;;;30.93;43.92
62849;BME280;48941;49.516;8.286;2023-07-09T09:18:55;100750.69;;;31.13;44.37
62849;BME280;48941;49.516;8.286;2023-07-09T09:21:27;100754.59;;;31.34;42.39
62849;BME280;48941;49.516;8.286;2023-07-09T09:23:58;100754.09;;;31.54;42.06
62849;BME280;48941;49.516;8.286;2023-07-09T09:26:31;100750.97;;;31.67;42.04
62849;BME280;48941;49.516;8.286;2023-07-09T09:29:00;100752.84;;;31.84;41.60
62849;BME280;48941;49.516;8.286;2023-07-09T09:31:31;100752.00;;;32.05;41.27
62849;BME280;48941;49.516;8.286;2023-07-09T09:33:58;100760.72;;;32.19;40.85
62849;BME280;48941;49.516;8.286;2023-07-09T09:36:26;100754.50;;;32.29;40.84
62849;BME280;48941;49.516;8.286;2023-07-09T09:38:54;100760.69;;;32.41;40.14
62849;BME280;48941;49.516;8.286;2023-07-09T09:41:24;100754.63;;;32.66;39.83
62849;BME280;48941;49.516;8.286;2023-07-09T09:43:54;100760.03;;;32.83;39.07
62849;BME280;48941;49.516;8.286;2023-07-09T09:46:25;100746.34;;;32.99;40.03
62849;BME280;48941;49.516;8.286;2023-07-09T09:48:58;100749.25;;;33.14;38.39
62849;BME280;48941;49.516;8.286;2023-07-09T09:51:27;100741.88;;;33.25;38.48
62849;BME280;48941;49.516;8.286;2023-07-09T09:53:58;100732.88;;;33.40;37.86
62849;BME280;48941;49.516;8.286;2023-07-09T09:56:28;100735.13;;;33.53;37.34
62849;BME280;48941;49.516;8.286;2023-07-09T09:58:57;100731.94;;;33.66;37.51
62849;BME280;48941;49.516;8.286;2023-07-09T10:01:27;100721.25;;;33.85;37.49
62849;BME280;48941;49.516;8.286;2023-07-09T10:03:58;100719.34;;;33.96;35.97
62849;BME280;48941;49.516;8.286;2023-07-09T10:06:34;100721.38;;;34.16;34.51
62849;BME280;48941;49.516;8.286;2023-07-09T10:09:11;100721.41;;;34.37;34.19
62849;BME280;48941;49.516;8.286;2023-07-09T10:11:47;100716.16;;;34.50;32.67
62849;BME280;48941;49.516;8.286;2023-07-09T10:14:27;100709.81;;;34.60;33.58
62849;BME280;48941;49.516;8.286;2023-07-09T10:17:00;100704.88;;;34.78;34.31
62849;BME280;48941;49.516;8.286;2023-07-09T10:19:36;100699.06;;;34.89;34.44
62849;BME280;48941;49.516;8.286;2023-07-09T10:22:14;100700.41;;;35.07;33.53
62849;BME280;48941;49.516;8.286;2023-07-09T10:24:51;100698.75;;;35.22;32.04
62849;BME280;48941;49.516;8.286;2023-07-09T10:27:30;100700.13;;;35.24;31.51
62849;BME280;48941;49.516;8.286;2023-07-09T10:30:13;100705.41;;;35.31;31.16
62849;BME280;48941;49.516;8.286;2023-07-09T10:32:57;100702.56;;;35.46;30.83
62849;BME280;48941;49.516;8.286;2023-07-09T10:35:32;100698.91;;;35.61;29.76
62849;BME280;48941;49.516;8.286;2023-07-09T10:38:15;100701.41;;;35.73;29.56
62849;BME280;48941;49.516;8.286;2023-07-09T10:40:47;100692.72;;;35.90;29.72
62849;BME280;48941;49.516;8.286;2023-07-09T10:43:20;100698.13;;;36.10;29.57
62849;BME280;48941;49.516;8.286;2023-07-09T10:45:58;100692.56;;;36.21;29.28
62849;BME280;48941;49.516;8.286;2023-07-09T10:48:33;100685.34;;;36.20;29.05
62849;BME280;48941;49.516;8.286;2023-07-09T10:51:10;100695.81;;;36.33;28.85
62849;BME280;48941;49.516;8.286;2023-07-09T10:53:43;100691.59;;;36.41;29.57
62849;BME280;48941;49.516;8.286;2023-07-09T10:56:16;100687.97;;;36.40;27.72
62849;BME280;48941;49.516;8.286;2023-07-09T10:58:50;100680.41;;;36.51;27.61
62849;BME280;48941;49.516;8.286;2023-07-09T11:01:28;100674.34;;;36.49;28.58
62849;BME280;48941;49.516;8.286;2023-07-09T11:04:01;100669.06;;;36.47;29.78
62849;BME280;48941;49.516;8.286;2023-07-09T11:06:36;100679.19;;;36.62;28.64
62849;BME280;48941;49.516;8.286;2023-07-09T11:09:11;100678.59;;;36.71;28.38
62849;BME280;48941;49.516;8.286;2023-07-09T11:11:45;100666.03;;;36.78;28.95
62849;BME280;48941;49.516;8.286;2023-07-09T11:14:23;100663.66;;;36.96;28.71
62849;BME280;48941;49.516;8.286;2023-07-09T11:16:55;100659.44;;;36.98;27.24
62849;BME280;48941;49.516;8.286;2023-07-09T11:19:24;100661.28;;;37.08;27.13
62849;BME280;48941;49.516;8.286;2023-07-09T11:22:13;100662.13;;;37.08;27.01
62849;BME280;48941;49.516;8.286;2023-07-09T11:24:49;100655.38;;;37.20;27.48
62849;BME280;48941;49.516;8.286;2023-07-09T11:27:21;100663.88;;;37.28;27.93
62849;BME280;48941;49.516;8.286;2023-07-09T11:29:56;100661.03;;;37.34;27.50
62849;BME280;48941;49.516;8.286;2023-07-09T11:32:25;100659.03;;;37.39;25.48
62849;BME280;48941;49.516;8.286;2023-07-09T11:34:54;100665.66;;;37.43;25.99
62849;BME280;48941;49.516;8.286;2023-07-09T11:37:44;100665.22;;;37.55;25.89
62849;BME280;48941;49.516;8.286;2023-07-09T11:40:13;100656.78;;;37.65;26.48
62849;BME280;48941;49.516;8.286;2023-07-09T11:42:49;100658.84;;;37.79;26.16
62849;BME280;48941;49.516;8.286;2023-07-09T11:45:21;100662.88;;;37.86;26.41
62849;BME280;48941;49.516;8.286;2023-07-09T11:47:55;100650.47;;;37.98;25.36
62849;BME280;48941;49.516;8.286;2023-07-09T11:50:33;100655.13;;;38.02;24.66
62849;BME280;48941;49.516;8.286;2023-07-09T11:53:16;100657.09;;;38.02;24.09
62849;BME280;48941;49.516;8.286;2023-07-09T11:55:46;100654.00;;;38.03;24.51
62849;BME280;48941;49.516;8.286;2023-07-09T11:58:15;100652.88;;;38.04;22.80
62849;BME280;48941;49.516;8.286;2023-07-09T12:00:47;100658.00;;;37.97;22.98
62849;BME280;48941;49.516;8.286;2023-07-09T12:03:18;100648.00;;;37.77;23.61
62849;BME280;48941;49.516;8.286;2023-07-09T12:05:49;100647.25;;;37.72;23.20
62849;BME280;48941;49.516;8.286;2023-07-09T12:08:27;100639.19;;;37.70;23.43
62849;BME280;48941;49.516;8.286;2023-07-09T12:10:56;100643.03;;;37.74;23.54
62849;BME280;48941;49.516;8.286;2023-07-09T12:13:24;100633.72;;;37.84;23.74
62849;BME280;48941;49.516;8.286;2023-07-09T12:15:51;100635.91;;;37.87;23.52
62849;BME280;48941;49.516;8.286;2023-07-09T12:18:19;100623.06;;;37.91;22.99
62849;BME280;48941;49.516;8.286;2023-07-09T12:20:49;100619.69;;;37.94;22.91
62849;BME280;48941;49.516;8.286;2023-07-09T12:23:30;100614.28;;;38.03;22.78
62849;BME280;48941;49.516;8.286;2023-07-09T12:26:00;100602.56;;;38.06;23.58
62849;BME280;48941;49.516;8.286;2023-07-09T12:28:29;100601.50;;;38.21;23.27
62849;BME280;48941;49.516;8.286;2023-07-09T12:30:57;100601.16;;;38.41;23.37
62849;BME280;48941;49.516;8.286;2023-07-09T12:33:26;100601.59;;;38.49;23.40
62849;BME280;48941;49.516;8.286;2023-07-09T12:35:56;100600.19;;;38.65;22.40
62849;BME280;48941;49.516;8.286;2023-07-09T12:38:28;100598.03;;;38.62;22.87
62849;BME280;48941;49.516;8.286;2023-07-09T12:40:59;100593.41;;;38.71;21.89
62849;BME280;48941;49.516;8.286;2023-07-09T12:43:30;100583.50;;;38.65;22.13
62849;BME280;48941;49.516;8.286;2023-07-09T12:45:59;100580.94;;;38.69;22.49
62849;BME280;48941;49.516;8.286;2023-07-09T12:48:28;100576.50;;;38.68;21.75
62849;BME280;48941;49.516;8.286;2023-07-09T12:50:58;100577.00;;;38.56;22.20
62849;BME280;48941;49.516;8.286;2023-07-09T12:53:29;100559.84;;;38.49;22.30
62849;BME280;48941;49.516;8.286;2023-07-09T12:55:58;100568.28;;;38.43;22.11
62849;BME280;48941;49.516;8.286;2023-07-09T12:58:28;100556.31;;;38.29;22.55
62849;BME280;48941;49.516;8.286;2023-07-09T13:00:58;100569.53;;;38.18;22.64
62849;BME280;48941;49.516;8.286;2023-07-09T13:03:28;100558.75;;;38.17;22.71
62849;BME280;48941;49.516;8.286;2023-07-09T13:05:58;100555.44;;;38.15;22.74